createdAt,value
2019-05-23T00:01:57.743Z,79.44
2019-05-23T00:04:44.243Z,79.67
2019-05-23T00:07:17.240Z,79.83
2019-05-23T00:09:47.307Z,80.13
2019-05-23T00:12:35.573Z,79.96
2019-05-23T00:15:08.912Z,80.52
2019-05-23T00:17:39.300Z,80.02
2019-05-23T00:20:10.434Z,80.16
2019-05-23T00:22:39.390Z,80.37
2019-05-23T00:25:10.281Z,80.61
2019-05-23T00:27:40.857Z,80.46
2019-05-23T00:30:13.241Z,80.27
2019-05-23T00:32:49.570Z,80.40
2019-05-23T00:38:13.516Z,80.45
2019-05-23T00:40:43.618Z,81.05
2019-05-23T00:43:12.992Z,81.13
2019-05-23T00:45:43.321Z,81.15
2019-05-23T00:48:12.595Z,80.92
2019-05-23T00:50:43.383Z,80.94
2019-05-23T00:53:13.456Z,81.35
2019-05-23T00:55:42.099Z,81.00
2019-05-23T00:58:12.058Z,81.38
2019-05-23T01:00:40.694Z,81.54
2019-05-23T01:03:11.593Z,81.20
2019-05-23T01:05:41.801Z,81.08
2019-05-23T01:08:10.914Z,81.16
2019-05-23T01:10:39.657Z,81.46
2019-05-23T01:13:10.645Z,81.14
2019-05-23T01:15:41.889Z,80.92
2019-05-23T01:18:10.680Z,81.31
2019-05-23T01:20:47.012Z,81.76
2019-05-23T01:23:17.172Z,81.36
2019-05-23T01:25:47.009Z,81.50
2019-05-23T01:28:15.732Z,81.35
2019-05-23T01:30:49.025Z,82.00
2019-05-23T01:33:18.574Z,81.47
2019-05-23T01:35:48.388Z,81.30
2019-05-23T01:38:18.858Z,81.58
2019-05-23T01:40:47.600Z,81.56
2019-05-23T01:43:18.027Z,81.75
2019-05-23T01:45:46.687Z,82.14
2019-05-23T01:48:15.915Z,81.74
2019-05-23T01:50:44.476Z,81.97
2019-05-23T01:53:13.517Z,82.25
2019-05-23T01:55:42.534Z,82.74
2019-05-23T01:58:11.439Z,82.52
2019-05-23T02:00:40.195Z,82.22
2019-05-23T02:03:09.181Z,82.11
2019-05-23T02:05:38.426Z,82.58
2019-05-23T02:08:09.223Z,82.74
2019-05-23T02:10:38.230Z,83.23
2019-05-23T02:13:09.307Z,82.63
2019-05-23T02:15:37.758Z,82.63
2019-05-23T02:18:06.479Z,82.79
2019-05-23T02:20:35.355Z,82.70
2019-05-23T02:23:04.679Z,83.39
2019-05-23T02:25:35.636Z,83.32
2019-05-23T02:28:05.045Z,83.66
2019-05-23T02:30:35.931Z,83.25
2019-05-23T02:33:05.774Z,82.54
2019-05-23T02:35:35.498Z,83.39
2019-05-23T02:38:06.249Z,83.19
2019-05-23T02:40:40.252Z,83.36
2019-05-23T02:43:17.056Z,83.50
2019-05-23T02:45:53.323Z,83.62
2019-05-23T02:48:24.315Z,83.81
2019-05-23T02:51:07.265Z,84.29
2019-05-23T02:53:37.535Z,84.17
2019-05-23T02:59:35.398Z,83.71
2019-05-23T03:02:40.246Z,84.32
2019-05-23T03:05:15.431Z,84.27
2019-05-23T03:07:45.297Z,84.30
2019-05-23T03:10:16.036Z,83.74
2019-05-23T03:12:46.526Z,84.36
2019-05-23T03:15:17.236Z,84.18
2019-05-23T03:17:48.960Z,84.27
2019-05-23T03:20:19.399Z,84.31
2019-05-23T03:22:51.012Z,84.54
2019-05-23T03:25:39.398Z,84.49
2019-05-23T03:28:12.650Z,84.42
2019-05-23T03:30:48.430Z,84.63
2019-05-23T03:33:18.629Z,84.57
2019-05-23T03:35:51.664Z,84.79
2019-05-23T03:38:20.916Z,84.13
2019-05-23T03:40:49.766Z,84.86
2019-05-23T03:43:19.174Z,85.42
2019-05-23T03:45:52.642Z,84.85
2019-05-23T03:48:23.879Z,85.05
2019-05-23T03:50:55.269Z,84.87
2019-05-23T03:53:25.655Z,85.29
2019-05-23T03:55:54.329Z,85.32
2019-05-23T03:58:25.539Z,85.45
2019-05-23T04:00:54.897Z,85.93
2019-05-23T04:03:27.308Z,85.07
2019-05-23T04:05:57.088Z,87.01
2019-05-23T04:08:27.045Z,86.47
2019-05-23T04:10:56.385Z,87.08
2019-05-23T04:13:25.533Z,86.47
2019-05-23T04:15:54.291Z,86.21
2019-05-23T04:18:22.880Z,86.45
2019-05-23T04:20:51.959Z,86.58
2019-05-23T04:23:21.031Z,86.01
2019-05-23T04:25:50.157Z,87.09
2019-05-23T04:28:19.079Z,86.63
2019-05-23T04:30:47.981Z,86.95
2019-05-23T04:33:17.111Z,86.86
2019-05-23T04:35:45.754Z,87.65
2019-05-23T04:38:15.639Z,87.89
2019-05-23T04:40:44.454Z,87.84
2019-05-23T04:43:13.048Z,87.94
2019-05-23T04:45:42.471Z,87.37
2019-05-23T04:48:11.719Z,87.64
2019-05-23T04:50:41.357Z,87.58
2019-05-23T04:53:09.912Z,87.72
2019-05-23T04:55:39.690Z,87.05
2019-05-23T04:58:09.000Z,86.69
2019-05-23T05:00:38.233Z,86.11
2019-05-23T05:03:08.632Z,86.50
2019-05-23T05:05:37.821Z,86.34
2019-05-23T05:08:08.584Z,85.73
2019-05-23T05:10:37.445Z,85.51
2019-05-23T05:13:06.333Z,85.06
2019-05-23T05:15:35.546Z,84.82
2019-05-23T05:18:04.623Z,84.27
2019-05-23T05:20:33.306Z,84.44
2019-05-23T05:23:02.007Z,84.33
2019-05-23T05:25:31.322Z,84.34
2019-05-23T05:28:00.812Z,83.76
2019-05-23T05:30:29.733Z,83.33
2019-05-23T05:32:58.347Z,83.05
2019-05-23T05:35:27.399Z,82.43
2019-05-23T05:37:56.548Z,82.65
2019-05-23T05:40:26.080Z,82.18
2019-05-23T05:42:55.536Z,81.34
2019-05-23T05:45:24.199Z,81.43
2019-05-23T05:47:52.875Z,80.93
2019-05-23T05:50:23.614Z,80.35
2019-05-23T05:52:52.197Z,80.14
2019-05-23T05:55:21.225Z,80.00
2019-05-23T05:57:49.907Z,79.46
2019-05-23T06:00:21.317Z,78.82
2019-05-23T06:03:03.531Z,77.20
2019-05-23T06:08:13.955Z,76.48
2019-05-23T06:10:43.491Z,75.57
2019-05-23T06:13:12.667Z,75.21
2019-05-23T06:15:41.657Z,75.72
2019-05-23T06:18:10.950Z,75.12
2019-05-23T06:20:43.271Z,77.67
2019-05-23T06:23:15.652Z,75.65
2019-05-23T06:25:44.531Z,75.15
2019-05-23T06:28:14.807Z,73.36
2019-05-23T06:30:44.108Z,75.82
2019-05-23T06:33:22.530Z,74.03
2019-05-23T06:35:44.160Z,70.88
2019-05-23T06:38:12.735Z,69.35
2019-05-23T06:40:41.803Z,70.65
2019-05-23T06:43:12.154Z,70.85
2019-05-23T06:45:42.716Z,65.68
2019-05-23T06:48:14.350Z,69.84
2019-05-23T06:50:42.924Z,66.70
2019-05-23T06:53:11.810Z,64.53
2019-05-23T06:55:40.475Z,63.25
2019-05-23T06:58:13.211Z,65.15
2019-05-23T07:00:42.986Z,63.59
2019-05-23T07:03:12.575Z,58.31
2019-05-23T07:05:42.071Z,60.47
2019-05-23T07:08:10.645Z,64.38
2019-05-23T07:10:43.433Z,60.43
2019-05-23T07:13:12.873Z,63.73
2019-05-23T07:15:42.255Z,61.52
2019-05-23T07:18:11.202Z,61.83
2019-05-23T07:20:39.847Z,61.00
2019-05-23T07:23:11.453Z,54.51
2019-05-23T07:25:40.050Z,56.13
2019-05-23T07:28:08.650Z,56.16
2019-05-23T07:30:37.538Z,57.69
2019-05-23T07:33:06.096Z,54.49
2019-05-23T07:35:35.067Z,56.42
2019-05-23T07:38:03.773Z,53.36
2019-05-23T07:40:32.724Z,50.60
2019-05-23T07:43:01.453Z,53.55
2019-05-23T07:45:31.739Z,53.41
2019-05-23T07:48:00.563Z,53.51
2019-05-23T07:50:29.124Z,52.00
2019-05-23T07:52:59.668Z,53.09
2019-05-23T07:58:19.316Z,51.15
2019-05-23T08:00:52.407Z,49.84
2019-05-23T08:03:22.556Z,49.89
2019-05-23T08:05:51.132Z,52.06
2019-05-23T08:08:19.978Z,51.22
2019-05-23T08:10:48.577Z,50.40
2019-05-23T08:13:17.416Z,49.35
2019-05-23T08:15:46.783Z,49.42
2019-05-23T08:18:15.904Z,49.40
2019-05-23T08:20:46.285Z,47.70
2019-05-23T08:23:16.313Z,49.14
2019-05-23T08:25:45.100Z,49.44
2019-05-23T08:28:13.660Z,48.87
2019-05-23T08:30:42.504Z,50.53
2019-05-23T08:33:12.671Z,46.99
2019-05-23T08:35:41.320Z,46.74
2019-05-23T08:38:10.304Z,47.47
2019-05-23T08:40:39.800Z,47.67
2019-05-23T08:43:09.081Z,43.90
2019-05-23T08:45:37.721Z,47.22
2019-05-23T08:48:06.523Z,46.68
2019-05-23T08:50:35.174Z,42.94
2019-05-23T08:53:04.064Z,44.06
2019-05-23T08:55:33.396Z,44.54
2019-05-23T08:58:02.801Z,42.10
2019-05-23T09:00:33.082Z,42.35
2019-05-23T09:03:03.908Z,43.51
2019-05-23T09:05:37.103Z,44.32
2019-05-23T09:08:08.513Z,40.55
2019-05-23T09:10:39.230Z,41.83
2019-05-23T09:13:08.707Z,41.19
2019-05-23T09:15:37.530Z,40.40
2019-05-23T09:18:07.177Z,43.46
2019-05-23T09:20:36.401Z,41.23
2019-05-23T09:23:05.482Z,40.23
2019-05-23T09:25:34.139Z,41.09
2019-05-23T09:28:03.621Z,40.94
2019-05-23T09:30:32.562Z,40.89
2019-05-23T09:33:01.787Z,38.77
2019-05-23T09:35:30.560Z,37.38
2019-05-23T09:37:59.199Z,39.71
2019-05-23T09:40:27.735Z,39.33
2019-05-23T09:42:56.296Z,38.79
2019-05-23T09:45:25.239Z,39.14
2019-05-23T09:47:53.757Z,37.24
2019-05-23T09:50:24.017Z,35.86
2019-05-23T09:52:52.873Z,37.54
2019-05-23T09:55:22.094Z,36.92
2019-05-23T09:57:50.703Z,36.67
2019-05-23T10:00:21.594Z,36.54
2019-05-23T10:02:50.724Z,34.90
2019-05-23T10:05:19.245Z,34.68
2019-05-23T10:07:47.958Z,35.18
2019-05-23T10:10:17.760Z,36.27
2019-05-23T10:12:46.589Z,37.01
2019-05-23T10:15:33.718Z,34.90
2019-05-23T10:18:02.706Z,33.90
2019-05-23T10:20:33.801Z,35.94
2019-05-23T10:23:03.272Z,34.00
2019-05-23T10:25:33.367Z,34.53
2019-05-23T10:28:08.429Z,32.13
2019-05-23T10:30:37.280Z,35.63
2019-05-23T10:33:11.441Z,36.13
2019-05-23T10:35:37.386Z,35.22
2019-05-23T10:38:06.032Z,35.47
2019-05-23T10:40:34.979Z,35.41
2019-05-23T10:43:03.847Z,35.60
2019-05-23T10:45:32.696Z,35.29
2019-05-23T10:48:01.624Z,36.36
2019-05-23T10:50:43.546Z,35.42
2019-05-23T10:53:00.443Z,36.59
2019-05-23T10:55:29.057Z,37.79
2019-05-23T10:57:57.652Z,38.13
2019-05-23T11:00:27.929Z,40.31
2019-05-23T11:02:56.781Z,39.31
2019-05-23T11:05:25.813Z,39.37
2019-05-23T11:07:54.862Z,38.78
2019-05-23T11:10:24.003Z,39.45
2019-05-23T11:12:54.233Z,38.68
2019-05-23T11:15:22.741Z,39.80
2019-05-23T11:17:53.613Z,39.39
2019-05-23T11:20:22.159Z,40.08
2019-05-23T11:22:50.987Z,42.61
2019-05-23T11:25:20.625Z,41.31
2019-05-23T11:27:49.204Z,42.49
2019-05-23T11:30:34.384Z,41.85
2019-05-23T11:33:02.917Z,42.55
2019-05-23T11:35:31.449Z,43.44
2019-05-23T11:38:01.225Z,43.75
2019-05-23T11:40:33.540Z,43.96
2019-05-23T11:43:00.189Z,44.70
2019-05-23T11:45:30.641Z,44.82
2019-05-23T11:47:59.304Z,43.69
2019-05-23T11:50:28.130Z,43.62
2019-05-23T11:52:57.083Z,43.31
2019-05-23T11:55:26.012Z,43.16
2019-05-23T11:57:54.827Z,42.76
2019-05-23T12:00:54.033Z,43.07
2019-05-23T12:03:22.588Z,42.44
2019-05-23T12:05:51.738Z,42.67
2019-05-23T12:08:20.516Z,43.15
2019-05-23T12:10:49.676Z,43.88
2019-05-23T12:13:18.443Z,44.09
2019-05-23T12:15:49.775Z,44.39
2019-05-23T12:18:18.499Z,44.31
2019-05-23T12:20:47.130Z,44.37
2019-05-23T12:23:15.636Z,44.74
2019-05-23T12:25:44.151Z,44.58
2019-05-23T12:28:13.345Z,44.84
2019-05-23T12:30:42.202Z,45.13
2019-05-23T12:33:10.826Z,45.32
2019-05-23T12:35:39.444Z,44.73
2019-05-23T12:38:08.369Z,44.34
2019-05-23T12:40:36.924Z,44.82
2019-05-23T12:43:05.525Z,46.10
2019-05-23T12:45:34.118Z,44.90
2019-05-23T12:48:07.495Z,44.98
2019-05-23T12:50:40.685Z,46.08
2019-05-23T12:53:11.336Z,43.96
2019-05-23T12:55:39.985Z,43.85
2019-05-23T12:58:08.611Z,44.62
2019-05-23T13:00:42.093Z,44.88
2019-05-23T13:03:13.247Z,45.11
2019-05-23T13:05:42.840Z,44.70
2019-05-23T13:08:11.627Z,46.19
2019-05-23T13:10:40.499Z,45.34
2019-05-23T13:13:10.025Z,44.08
2019-05-23T13:15:38.633Z,44.54
2019-05-23T13:18:07.505Z,44.57
2019-05-23T13:20:37.756Z,44.32
2019-05-23T13:23:07.145Z,42.55
2019-05-23T13:25:36.245Z,42.52
2019-05-23T13:28:06.044Z,42.17
2019-05-23T13:30:34.677Z,42.35
2019-05-23T13:33:04.140Z,42.71
2019-05-23T13:35:33.794Z,42.94
2019-05-23T13:38:02.412Z,43.20
2019-05-23T13:40:31.271Z,43.51
2019-05-23T13:42:59.908Z,44.70
2019-05-23T13:45:28.500Z,43.70
2019-05-23T13:47:57.075Z,43.87
2019-05-23T13:50:26.982Z,43.88
2019-05-23T13:52:55.533Z,43.87
2019-05-23T13:55:24.483Z,44.76
2019-05-23T13:57:53.052Z,45.05
2019-05-23T14:00:22.794Z,44.56
2019-05-23T14:02:51.527Z,44.42
2019-05-23T14:05:20.964Z,44.67
2019-05-23T14:07:49.539Z,44.78
2019-05-23T14:10:18.496Z,44.77
2019-05-23T14:12:47.588Z,44.77
2019-05-23T14:15:21.805Z,44.65
2019-05-23T14:17:50.361Z,44.88
2019-05-23T14:20:21.311Z,45.67
2019-05-23T14:22:51.686Z,46.20
2019-05-23T14:25:20.652Z,44.76
2019-05-23T14:27:50.950Z,45.02
2019-05-23T14:30:21.945Z,45.28
2019-05-23T14:32:58.002Z,44.77
2019-05-23T14:35:30.986Z,44.90
2019-05-23T14:38:01.638Z,44.87
2019-05-23T14:40:33.467Z,44.68
2019-05-23T14:43:06.759Z,44.48
2019-05-23T14:45:55.112Z,44.77
2019-05-23T14:48:25.408Z,44.61
2019-05-23T14:50:58.317Z,44.01
2019-05-23T14:53:29.080Z,43.50
2019-05-23T14:56:00.237Z,43.58
2019-05-23T14:58:29.265Z,43.56
2019-05-23T15:00:59.997Z,43.43
2019-05-23T15:03:29.158Z,43.63
2019-05-23T15:05:58.191Z,43.61
2019-05-23T15:08:27.283Z,43.79
2019-05-23T15:10:55.898Z,43.51
2019-05-23T15:13:24.443Z,43.13
2019-05-23T15:15:52.969Z,43.46
2019-05-23T15:18:21.472Z,43.18
2019-05-23T15:21:11.961Z,43.38
2019-05-23T15:23:40.605Z,43.45
2019-05-23T15:26:22.591Z,43.73
2019-05-23T15:28:39.821Z,43.66
2019-05-23T15:31:08.788Z,43.62
2019-05-23T15:33:37.472Z,43.66
2019-05-23T15:36:06.526Z,43.95
2019-05-23T15:38:35.066Z,44.01
2019-05-23T15:41:03.970Z,44.35
2019-05-23T15:43:32.592Z,44.27
2019-05-23T15:46:01.116Z,43.98
2019-05-23T15:48:29.767Z,43.58
2019-05-23T15:50:58.275Z,43.52
2019-05-23T15:53:37.707Z,43.69
2019-05-23T15:56:28.446Z,43.61
2019-05-23T15:59:12.596Z,43.72
2019-05-23T16:01:55.004Z,44.17
2019-05-23T16:04:25.012Z,44.08
2019-05-23T16:06:54.730Z,44.17
2019-05-23T16:09:29.906Z,44.42
2019-05-23T16:11:54.446Z,44.45
2019-05-23T16:14:23.716Z,44.38
2019-05-23T16:16:56.207Z,44.75
2019-05-23T16:19:23.408Z,44.50
2019-05-23T16:21:52.308Z,44.98
2019-05-23T16:24:21.371Z,45.08
2019-05-23T16:26:50.091Z,45.20
2019-05-23T16:29:19.448Z,44.60
2019-05-23T16:31:48.163Z,44.43
2019-05-23T16:34:16.780Z,44.70
2019-05-23T16:36:45.349Z,44.60
2019-05-23T16:39:14.085Z,45.15
2019-05-23T16:41:42.578Z,44.93
2019-05-23T16:44:11.206Z,44.47
2019-05-23T16:46:40.058Z,44.54
2019-05-23T16:49:08.698Z,44.56
2019-05-23T16:51:37.451Z,44.39
2019-05-23T16:54:06.620Z,44.44
2019-05-23T16:56:37.114Z,44.31
2019-05-23T16:59:22.568Z,44.17
2019-05-23T17:02:04.961Z,44.04
2019-05-23T17:04:28.173Z,43.94
2019-05-23T17:06:58.454Z,44.16
2019-05-23T17:09:32.263Z,44.25
2019-05-23T17:12:12.323Z,44.28
2019-05-23T17:14:55.089Z,44.18
2019-05-23T17:17:57.009Z,44.16
2019-05-23T17:20:19.764Z,44.35
2019-05-23T17:23:03.221Z,44.47
2019-05-23T17:25:39.147Z,44.48
2019-05-23T17:28:12.175Z,44.33
2019-05-23T17:30:59.013Z,44.51
2019-05-23T17:33:29.279Z,44.66
2019-05-23T17:35:57.794Z,44.71
2019-05-23T17:38:26.495Z,44.59
2019-05-23T17:40:55.443Z,44.61
2019-05-23T17:43:24.207Z,44.71
2019-05-23T17:45:52.779Z,44.76
2019-05-23T17:48:21.255Z,45.43
2019-05-23T17:50:49.754Z,45.60
2019-05-23T17:53:18.580Z,46.07
2019-05-23T17:55:47.179Z,45.64
2019-05-23T17:58:17.506Z,46.58
2019-05-23T18:00:47.679Z,45.99
2019-05-23T18:03:16.645Z,45.92
2019-05-23T18:05:45.310Z,46.29
2019-05-23T18:08:15.176Z,45.78
2019-05-23T18:10:46.300Z,45.93
2019-05-23T18:13:15.341Z,46.10
2019-05-23T18:15:44.538Z,45.96
2019-05-23T18:18:13.570Z,45.95
2019-05-23T18:20:43.038Z,45.94
2019-05-23T18:23:11.771Z,45.72
2019-05-23T18:25:41.492Z,45.66
2019-05-23T18:28:12.304Z,45.59
2019-05-23T18:30:56.785Z,45.73
2019-05-23T18:33:25.612Z,45.54
2019-05-23T18:35:56.279Z,45.60
2019-05-23T18:38:25.276Z,45.94
2019-05-23T18:41:04.017Z,45.98
2019-05-23T18:43:26.027Z,46.17
2019-05-23T18:45:56.126Z,45.98
2019-05-23T18:48:24.659Z,45.99
2019-05-23T18:50:53.390Z,46.08
2019-05-23T18:53:22.764Z,45.92
2019-05-23T18:55:51.817Z,45.94
2019-05-23T18:58:20.678Z,45.88
2019-05-23T19:00:57.099Z,45.74
2019-05-23T19:03:26.132Z,45.81
2019-05-23T19:05:54.794Z,45.87
2019-05-23T19:08:23.466Z,45.80
2019-05-23T19:10:52.558Z,46.12
2019-05-23T19:13:21.118Z,46.17
2019-05-23T19:15:50.120Z,46.52
2019-05-23T19:18:18.967Z,46.74
2019-05-23T19:20:54.462Z,46.97
2019-05-23T19:23:21.998Z,48.15
2019-05-23T19:25:50.486Z,47.32
2019-05-23T19:28:20.420Z,47.53
2019-05-23T19:30:49.091Z,47.53
2019-05-23T19:33:18.196Z,47.76
2019-05-23T19:35:47.666Z,48.21
2019-05-23T19:38:18.634Z,48.04
2019-05-23T19:40:47.459Z,48.41
2019-05-23T19:43:17.760Z,48.94
2019-05-23T19:45:47.113Z,48.67
2019-05-23T19:48:15.912Z,48.92
2019-05-23T19:50:44.418Z,48.75
2019-05-23T19:53:13.210Z,48.57
2019-05-23T19:55:42.120Z,48.88
2019-05-23T19:58:11.221Z,49.10
2019-05-23T20:00:40.882Z,49.14
2019-05-23T20:03:09.818Z,49.41
2019-05-23T20:05:58.288Z,49.16
2019-05-23T20:08:26.772Z,49.03
2019-05-23T20:10:55.463Z,49.42
2019-05-23T20:13:24.760Z,49.78
2019-05-23T20:15:53.405Z,50.00
2019-05-23T20:18:22.200Z,49.83
2019-05-23T20:20:51.434Z,50.38
2019-05-23T20:23:21.265Z,50.01
2019-05-23T20:25:49.986Z,50.79
2019-05-23T20:28:18.634Z,51.68
2019-05-23T20:30:54.093Z,50.92
2019-05-23T20:33:22.788Z,50.90
2019-05-23T20:35:51.498Z,51.20
2019-05-23T20:38:20.105Z,51.38
2019-05-23T20:40:54.932Z,51.57
2019-05-23T20:43:23.481Z,51.67
2019-05-23T20:45:51.965Z,52.29
2019-05-23T20:48:20.874Z,52.63
2019-05-23T20:50:49.530Z,52.58
2019-05-23T20:53:18.082Z,53.11
2019-05-23T20:55:46.705Z,53.54
2019-05-23T20:58:16.071Z,54.08
2019-05-23T21:00:46.389Z,54.15
2019-05-23T21:03:14.894Z,55.47
2019-05-23T21:05:43.385Z,53.98
2019-05-23T21:08:12.021Z,54.43
2019-05-23T21:10:46.340Z,55.10
2019-05-23T21:13:15.050Z,54.95
2019-05-23T21:15:43.871Z,55.39
2019-05-23T21:18:13.078Z,55.83
2019-05-23T21:20:42.027Z,55.55
2019-05-23T21:23:10.671Z,56.46
2019-05-23T21:25:40.897Z,55.51
2019-05-23T21:28:10.132Z,55.86
2019-05-23T21:30:38.645Z,55.76
2019-05-23T21:33:07.254Z,56.37
2019-05-23T21:35:35.842Z,56.40
2019-05-23T21:38:04.532Z,56.44
2019-05-23T21:40:36.120Z,56.42
2019-05-23T21:43:05.472Z,57.17
2019-05-23T21:45:34.621Z,57.57
2019-05-23T21:48:03.509Z,56.86
2019-05-23T21:50:32.259Z,57.41
2019-05-23T21:53:00.770Z,58.00
2019-05-23T21:55:43.242Z,58.42
2019-05-23T21:58:13.693Z,58.88
2019-05-23T22:01:07.959Z,58.22
2019-05-23T22:03:54.394Z,58.77
2019-05-23T22:06:28.663Z,59.38
2019-05-23T22:08:57.593Z,58.50
2019-05-23T22:11:26.442Z,59.40
2019-05-23T22:13:54.953Z,58.84
2019-05-23T22:16:23.992Z,58.81
2019-05-23T22:18:52.636Z,58.85
2019-05-23T22:21:21.753Z,59.43
2019-05-23T22:23:50.487Z,59.54
2019-05-23T22:26:19.253Z,59.62
2019-05-23T22:28:48.506Z,60.10
2019-05-23T22:31:17.364Z,59.86
2019-05-23T22:36:43.637Z,60.05
2019-05-23T22:39:12.275Z,59.74
2019-05-23T22:41:40.793Z,60.55
2019-05-23T22:44:09.549Z,60.42
2019-05-23T22:46:38.797Z,61.11
2019-05-23T22:49:07.511Z,61.15
2019-05-23T22:51:36.045Z,61.25
2019-05-23T22:54:04.757Z,60.68
2019-05-23T22:56:33.255Z,61.36
2019-05-23T22:59:01.734Z,61.69
2019-05-23T23:01:30.919Z,62.11
2019-05-23T23:03:59.468Z,61.69
2019-05-23T23:06:28.811Z,61.55
2019-05-23T23:08:57.472Z,61.57
2019-05-23T23:11:25.962Z,61.47
2019-05-23T23:13:54.483Z,62.79
2019-05-23T23:16:22.954Z,63.48
2019-05-23T23:18:52.183Z,62.68
2019-05-23T23:21:20.677Z,62.73
2019-05-23T23:23:49.195Z,62.50
2019-05-23T23:26:17.808Z,62.40
2019-05-23T23:28:46.302Z,62.93
2019-05-23T23:31:14.915Z,64.43
2019-05-23T23:33:43.494Z,63.71
2019-05-23T23:36:11.980Z,64.31
2019-05-23T23:38:40.463Z,64.58
2019-05-23T23:41:09.007Z,64.16
2019-05-23T23:43:37.526Z,64.04
2019-05-23T23:46:24.067Z,65.37
2019-05-23T23:52:02.278Z,64.46
2019-05-23T23:54:48.763Z,64.73
2019-05-23T23:57:35.638Z,64.74
